Terminal Aerodrome Forecast
Issued by NWS Corpus Christi, TX

Home | Current Version | Previous Version | Text Only | Print | Product List | Glossary On
Versions: 1 2 3 4 5 6 7 8 9 10 11 12 13 14 15 16 17 18
957
FTUS44 KCRP 261630 AAC
TAFVCT
TAF AMD
KVCT 261630Z 2617/2712 15015G20KT P6SM BKN018 OVC040
     FM261900 16015G20KT P6SM VCSH SCT025 BKN035 OVC150
     FM262000 15015G23KT P6SM VCTS BKN040CB OVC150
     FM270200 14011KT P6SM BKN015 OVC025
     FM270800 17010KT P6SM VCSH BKN015 OVC025=

USA.gov is the U.S. government's official web portal to all federal, state and local government web resources and services.